Time;durP1;ratioP1;P1;durP2;ratioP2;P2;SDS_P1;SDS_P2;PMS_P1;PMS_P2;Temp;Humidity;BMP_temperature;BMP_pressure;BME280_temperature;BME280_humidity;BME280_pressure;Samples;Min_cycle;Max_cycle;Signal;HPM_P1;HPM_P2
2022/01/15 00:00:21;;;;;;;;;;;;;;;-0.82;79.21;97787.63;5051418;28;19950;-74
2022/01/15 00:02:47;;;;;;;;;;;;;;;-0.84;79.19;97781.78;5045561;28;20319;-76
2022/01/15 00:05:13;;;;;;;;;;;;;;;-0.87;79.21;97776.03;5061063;28;19951;-75
2022/01/15 00:07:39;;;;;;;;;;;;;;;-0.89;79.17;97777.88;5054300;28;19993;-75
2022/01/15 00:10:06;;;;;;;;;;;;;;;-0.92;78.83;97768.63;5052473;28;19952;-75
2022/01/15 00:12:38;;;;;;;;;;;;;;;-0.94;79.00;97765.34;5054381;28;19953;-75
2022/01/15 00:15:05;;;;;;;;;;;;;;;-0.96;78.98;97766.41;5054486;28;20401;-75
2022/01/15 00:17:44;;;;;;;;;;;;;;;-0.96;79.15;97771.56;5051325;28;19958;-74
2022/01/15 00:20:10;;;;;;;;;;;;;;;-0.99;79.26;97766.63;5042033;28;19965;-74
2022/01/15 00:22:36;;;;;;;;;;;;;;;-1.00;79.37;97768.38;5054312;28;19954;-74
2022/01/15 00:25:02;;;;;;;;;;;;;;;-1.03;79.34;97766.84;5054920;28;19962;-74
2022/01/15 00:27:28;;;;;;;;;;;;;;;-1.04;79.13;97761.81;5062998;28;19972;-74
2022/01/15 00:29:54;;;;;;;;;;;;;;;-1.06;79.25;97767.06;5049697;28;20436;-74
2022/01/15 00:32:20;;;;;;;;;;;;;;;-1.05;79.57;97768.72;5059305;28;19955;-74
2022/01/15 00:34:46;;;;;;;;;;;;;;;-1.07;79.73;97768.00;5051773;28;20371;-74
2022/01/15 00:37:12;;;;;;;;;;;;;;;-1.09;79.26;97769.88;5058720;28;19976;-75
2022/01/15 00:39:37;;;;;;;;;;;;;;;-1.12;79.08;97762.38;5060081;28;20445;-75
2022/01/15 00:42:05;;;;;;;;;;;;;;;-1.15;79.06;97762.59;5055287;28;19950;-75
2022/01/15 00:44:31;;;;;;;;;;;;;;;-1.18;79.18;97746.56;5059116;28;19959;-74
2022/01/15 00:46:57;;;;;;;;;;;;;;;-1.18;79.25;97742.22;5056491;28;20052;-75
2022/01/15 00:49:23;;;;;;;;;;;;;;;-1.20;79.23;97741.50;5054906;28;19996;-75
2022/01/15 00:51:49;;;;;;;;;;;;;;;-1.22;79.37;97738.22;5057903;28;20010;-74
2022/01/15 00:54:15;;;;;;;;;;;;;;;-1.26;79.31;97740.22;5056351;28;19958;-74
2022/01/15 00:56:40;;;;;;;;;;;;;;;-1.29;79.10;97737.84;5060100;28;19951;-74
2022/01/15 00:59:06;;;;;;;;;;;;;;;-1.30;79.13;97740.53;5059088;28;19958;-74
2022/01/15 01:01:32;;;;;;;;;;;;;;;-1.30;79.11;97736.22;5052218;28;20004;-75
2022/01/15 01:03:58;;;;;;;;;;;;;;;-1.32;79.35;97732.94;5051669;28;19963;-74
2022/01/15 01:06:24;;;;;;;;;;;;;;;-1.33;79.39;97735.63;5066802;28;20057;-74
2022/01/15 01:08:50;;;;;;;;;;;;;;;-1.35;79.26;97727.19;5062212;28;19956;-74
2022/01/15 01:11:22;;;;;;;;;;;;;;;-1.35;79.13;97724.63;5058040;28;19957;-73
2022/01/15 01:24:11;;;;;;;;;;;;;;;-1.41;79.38;97715.56;5056558;28;19958;-73
2022/01/15 01:26:46;;;;;;;;;;;;;;;-1.42;79.32;97723.44;5046511;28;19963;-75
2022/01/15 01:29:31;;;;;;;;;;;;;;;-1.47;79.32;97710.88;5059004;28;20499;-74
2022/01/15 01:34:25;;;;;;;;;;;;;;;-1.52;79.18;97703.50;5058356;28;19971;-74
2022/01/15 01:37:32;;;;;;;;;;;;;;;-1.50;79.37;97713.69;5053431;28;19956;-75
2022/01/15 01:44:40;;;;;;;;;;;;;;;-1.52;80.22;97703.50;5042920;28;19964;-75
2022/01/15 01:47:16;;;;;;;;;;;;;;;-1.52;80.42;97703.50;5062472;28;19968;-74
2022/01/15 01:49:42;;;;;;;;;;;;;;;-1.51;79.97;97710.28;5059075;28;19959;-74
2022/01/15 01:52:09;;;;;;;;;;;;;;;-1.53;80.29;97704.44;5056837;28;19983;-75
2022/01/15 01:54:35;;;;;;;;;;;;;;;-1.54;80.06;97705.34;5060504;28;19955;-74
2022/01/15 01:57:01;;;;;;;;;;;;;;;-1.56;79.69;97706.41;5055518;28;20409;-74
2022/01/15 01:59:27;;;;;;;;;;;;;;;-1.59;79.93;97701.50;5063617;28;20308;-73
2022/01/15 02:01:53;;;;;;;;;;;;;;;-1.60;80.48;97698.09;5057332;28;20420;-75
2022/01/15 02:04:19;;;;;;;;;;;;;;;-1.59;80.26;97697.16;5059327;28;19958;-74
2022/01/15 02:06:45;;;;;;;;;;;;;;;-1.59;80.15;97692.03;5059563;28;20361;-74
2022/01/15 02:09:11;;;;;;;;;;;;;;;-1.59;80.26;97706.63;5042454;28;20415;-74
2022/01/15 02:11:39;;;;;;;;;;;;;;;-1.62;79.88;97694.81;5058553;28;19952;-74
2022/01/15 02:14:05;;;;;;;;;;;;;;;-1.67;79.56;97694.31;5056903;28;19958;-74
2022/01/15 02:16:31;;;;;;;;;;;;;;;-1.67;79.94;97684.03;5053056;28;20019;-74
2022/01/15 02:18:57;;;;;;;;;;;;;;;-1.68;79.95;97690.09;5054287;28;20034;-73
2022/01/15 02:24:08;;;;;;;;;;;;;;;-1.72;79.51;97688.66;5052893;28;20328;-73
2022/01/15 02:26:37;;;;;;;;;;;;;;;-1.74;80.27;97686.22;5055534;28;20427;-72
2022/01/15 02:29:04;;;;;;;;;;;;;;;-1.74;80.00;97693.09;5055323;28;19958;-72
2022/01/15 02:31:31;;;;;;;;;;;;;;;-1.76;79.95;97690.66;5052438;28;19961;-74
2022/01/15 02:33:58;;;;;;;;;;;;;;;-1.78;79.59;97684.00;5056135;28;19967;-74
2022/01/15 02:36:25;;;;;;;;;;;;;;;-1.79;79.62;97682.34;5058858;28;19972;-74
2022/01/15 02:38:51;;;;;;;;;;;;;;;-1.81;79.62;97679.88;5067031;28;19968;-74
2022/01/15 02:41:24;;;;;;;;;;;;;;;-1.82;79.90;97683.38;5056461;28;19954;-74
2022/01/15 02:43:51;;;;;;;;;;;;;;;-1.83;80.02;97689.44;5055984;28;19952;-74
2022/01/15 02:48:47;;;;;;;;;;;;;;;-1.86;79.59;97677.63;5067593;28;20407;-74
2022/01/15 02:51:13;;;;;;;;;;;;;;;-1.86;79.62;97681.97;5052146;28;19985;-73
2022/01/15 02:53:39;;;;;;;;;;;;;;;-1.88;79.72;97679.50;5049696;28;19961;-73
2022/01/15 02:56:05;;;;;;;;;;;;;;;-1.89;79.68;97671.88;5059497;28;19999;-74
2022/01/15 02:58:31;;;;;;;;;;;;;;;-1.91;79.58;97673.75;5063112;28;19993;-75
2022/01/15 03:00:57;;;;;;;;;;;;;;;-1.95;79.22;97680.88;5057196;28;20009;-74
2022/01/15 03:03:22;;;;;;;;;;;;;;;-1.98;79.05;97670.78;5070552;28;19958;-74
2022/01/15 03:05:48;;;;;;;;;;;;;;;-2.01;78.92;97673.59;5053425;28;19955;-74
2022/01/15 03:08:14;;;;;;;;;;;;;;;-2.02;79.13;97673.69;5041492;28;19974;-74
2022/01/15 03:10:40;;;;;;;;;;;;;;;-2.05;78.94;97665.25;5060209;28;19995;-75
2022/01/15 03:13:12;;;;;;;;;;;;;;;-2.05;79.17;97664.47;5066925;28;20036;-74
2022/01/15 03:15:38;;;;;;;;;;;;;;;-2.05;79.09;97661.88;5044001;28;19962;-73
2022/01/15 03:18:04;;;;;;;;;;;;;;;-2.05;79.07;97662.69;5043345;28;19954;-73
2022/01/15 03:20:31;;;;;;;;;;;;;;;-2.07;79.06;97661.16;5053914;28;20378;-73
2022/01/15 03:22:56;;;;;;;;;;;;;;;-2.09;79.28;97656.13;5060187;28;19960;-73
2022/01/15 03:25:22;;;;;;;;;;;;;;;-2.13;79.47;97656.47;5052239;28;19949;-73
2022/01/15 03:27:48;;;;;;;;;;;;;;;-2.16;79.71;97648.94;5049447;28;19978;-73
2022/01/15 03:30:14;;;;;;;;;;;;;;;-2.20;79.61;97643.22;5048707;28;20418;-73
2022/01/15 03:32:44;;;;;;;;;;;;;;;-2.22;79.52;97642.50;5039883;28;20434;-73
2022/01/15 03:35:11;;;;;;;;;;;;;;;-2.24;79.75;97639.22;5058101;28;19952;-73
2022/01/15 03:37:37;;;;;;;;;;;;;;;-2.27;79.48;97631.72;5055635;28;19949;-73
2022/01/15 03:40:03;;;;;;;;;;;;;;;-2.30;79.21;97630.19;5045635;28;20399;-73
2022/01/15 03:42:29;;;;;;;;;;;;;;;-2.31;79.55;97630.31;5049618;28;19958;-73
2022/01/15 03:44:55;;;;;;;;;;;;;;;-2.33;79.15;97627.00;5051649;28;20462;-73
2022/01/15 03:47:21;;;;;;;;;;;;;;;-2.35;79.22;97634.84;5056848;28;19964;-73
2022/01/15 03:49:47;;;;;;;;;;;;;;;-2.37;78.87;97633.28;5062411;28;20042;-73
2022/01/15 03:52:13;;;;;;;;;;;;;;;-2.40;79.05;97629.19;5048674;28;19973;-73
2022/01/15 03:54:39;;;;;;;;;;;;;;;-2.40;78.76;97629.19;5051631;28;19960;-73
2022/01/15 03:57:05;;;;;;;;;;;;;;;-2.42;78.67;97623.34;5058167;28;20003;-73
2022/01/15 03:59:31;;;;;;;;;;;;;;;-2.44;78.77;97630.34;5055839;28;20334;-73
2022/01/15 04:01:57;;;;;;;;;;;;;;;-2.48;78.79;97621.22;5054120;28;19950;-73
2022/01/15 04:04:23;;;;;;;;;;;;;;;-2.49;78.71;97622.16;5055382;28;19952;-73
2022/01/15 04:06:49;;;;;;;;;;;;;;;-2.50;78.85;97631.59;5052793;28;20008;-73
2022/01/15 04:09:15;;;;;;;;;;;;;;;-2.50;78.50;97623.91;5046209;28;19967;-73
2022/01/15 04:11:41;;;;;;;;;;;;;;;-2.52;78.54;97614.63;5058702;28;19956;-73
2022/01/15 04:14:07;;;;;;;;;;;;;;;-2.53;78.71;97613.81;5056757;28;19976;-73
2022/01/15 04:16:33;;;;;;;;;;;;;;;-2.55;78.80;97613.13;5054502;28;20314;-73
2022/01/15 04:18:59;;;;;;;;;;;;;;;-2.57;78.30;97612.41;5045793;28;19949;-73
2022/01/15 04:21:26;;;;;;;;;;;;;;;-2.60;78.28;97614.34;5044995;28;19954;-72
2022/01/15 04:23:52;;;;;;;;;;;;;;;-2.62;77.97;97611.91;5058250;28;19958;-74
2022/01/15 04:26:23;;;;;;;;;;;;;;;-2.63;78.02;97604.31;5056792;28;19959;-75
2022/01/15 04:28:49;;;;;;;;;;;;;;;-2.64;77.99;97613.75;5055497;28;19968;-74
2022/01/15 04:31:17;;;;;;;;;;;;;;;-2.68;78.41;97614.91;5050696;28;19948;-74
2022/01/15 04:33:42;;;;;;;;;;;;;;;-2.72;78.09;97611.72;5064160;28;19957;-72
2022/01/15 04:36:09;;;;;;;;;;;;;;;-2.73;78.15;97616.94;5046513;28;19947;-72
2022/01/15 04:38:37;;;;;;;;;;;;;;;-2.76;78.18;97615.41;5054364;28;19955;-72
2022/01/15 04:41:04;;;;;;;;;;;;;;;-2.80;78.12;97611.41;5065380;28;19955;-72
2022/01/15 04:43:30;;;;;;;;;;;;;;;-2.82;78.42;97607.31;5053669;28;19946;-72
2022/01/15 04:45:56;;;;;;;;;;;;;;;-2.82;78.01;97612.47;5051339;28;19951;-73
2022/01/15 04:48:22;;;;;;;;;;;;;;;-2.83;77.83;97609.06;5046549;28;20344;-73
2022/01/15 04:50:48;;;;;;;;;;;;;;;-2.84;77.92;97604.84;5059475;28;20358;-74
2022/01/15 04:53:14;;;;;;;;;;;;;;;-2.83;77.67;97608.22;5055134;28;19956;-74
2022/01/15 04:55:40;;;;;;;;;;;;;;;-2.86;78.11;97612.69;5043676;28;19961;-73
2022/01/15 04:58:07;;;;;;;;;;;;;;;-2.86;78.28;97611.84;5053163;28;19953;-73
2022/01/15 05:00:33;;;;;;;;;;;;;;;-2.87;78.04;97612.78;5048121;28;19964;-73
2022/01/15 05:02:59;;;;;;;;;;;;;;;-2.89;77.99;97612.88;5051259;28;19962;-73
2022/01/15 05:05:26;;;;;;;;;;;;;;;-2.89;78.79;97609.50;5052652;28;20418;-73
2022/01/15 05:07:53;;;;;;;;;;;;;;;-2.89;78.77;97610.31;5063189;28;19973;-73
2022/01/15 05:10:21;;;;;;;;;;;;;;;-2.89;78.21;97614.63;5057349;28;19954;-73
2022/01/15 05:12:48;;;;;;;;;;;;;;;-2.91;78.28;97611.34;5053340;28;19969;-73
2022/01/15 05:15:15;;;;;;;;;;;;;;;-2.92;78.37;97607.97;5053070;28;19951;-73
2022/01/15 05:17:41;;;;;;;;;;;;;;;-2.95;78.01;97608.16;5056027;28;20432;-73
2022/01/15 05:20:08;;;;;;;;;;;;;;;-2.96;78.02;97609.09;5053846;28;19954;-74
2022/01/15 05:22:34;;;;;;;;;;;;;;;-2.96;77.96;97608.25;5053227;28;19960;-73
2022/01/15 05:25:01;;;;;;;;;;;;;;;-2.96;77.57;97609.09;5055290;28;19969;-73
2022/01/15 05:27:27;;;;;;;;;;;;;;;-2.97;77.83;97615.13;5055571;28;19965;-74
2022/01/15 05:29:53;;;;;;;;;;;;;;;-3.00;77.67;97612.81;5053728;28;20001;-74
2022/01/15 05:32:19;;;;;;;;;;;;;;;-3.00;78.11;97619.66;5055794;28;20047;-72
2022/01/15 05:34:45;;;;;;;;;;;;;;;-3.02;78.08;97621.50;5067722;28;20327;-73
2022/01/15 05:37:11;;;;;;;;;;;;;;;-3.06;77.54;97611.47;5056877;28;20323;-73
2022/01/15 05:39:37;;;;;;;;;;;;;;;-3.08;77.23;97615.88;5066103;28;19957;-73
2022/01/15 05:42:03;;;;;;;;;;;;;;;-3.08;77.36;97610.75;5053770;28;19948;-73
2022/01/15 05:44:29;;;;;;;;;;;;;;;-3.09;77.67;97615.97;5055864;28;19959;-75
2022/01/15 05:46:55;;;;;;;;;;;;;;;-3.11;77.42;97605.81;5051794;28;19965;-73
2022/01/15 05:49:21;;;;;;;;;;;;;;;-3.13;77.20;97614.53;5052893;28;20014;-73
2022/01/15 05:51:47;;;;;;;;;;;;;;;-3.14;77.34;97607.78;5057827;28;19973;-73
2022/01/15 05:54:13;;;;;;;;;;;;;;;-3.16;77.34;97607.06;5036527;28;19956;-74
2022/01/15 05:56:39;;;;;;;;;;;;;;;-3.18;77.63;97612.28;5061089;28;19957;-74
2022/01/15 05:59:06;;;;;;;;;;;;;;;-3.20;77.82;97611.56;5064022;28;19955;-73
2022/01/15 06:01:36;;;;;;;;;;;;;;;-3.21;77.71;97607.38;5057105;28;19968;-73
2022/01/15 06:04:02;;;;;;;;;;;;;;;-3.21;77.72;97619.34;5053631;28;20314;-73
2022/01/15 06:06:28;;;;;;;;;;;;;;;-3.20;78.18;97616.69;5044463;28;19970;-74
2022/01/15 06:08:54;;;;;;;;;;;;;;;-3.20;77.96;97613.31;5031561;28;20002;-73
2022/01/15 06:11:21;;;;;;;;;;;;;;;-3.21;77.94;97619.34;5064783;28;19961;-74
2022/01/15 06:13:47;;;;;;;;;;;;;;;-3.24;77.93;97617.00;5057281;28;19962;-73
2022/01/15 06:16:14;;;;;;;;;;;;;;;-3.28;78.14;97619.75;5053596;28;19949;-74
2022/01/15 06:18:40;;;;;;;;;;;;;;;-3.30;77.87;97616.50;5049172;28;19956;-73
2022/01/15 06:21:07;;;;;;;;;;;;;;;-3.30;77.82;97610.53;5060531;28;19957;-73
2022/01/15 06:23:33;;;;;;;;;;;;;;;-3.33;77.64;97608.19;5053399;28;19963;-72
2022/01/15 06:25:59;;;;;;;;;;;;;;;-3.37;78.04;97607.56;5061108;28;19975;-74
2022/01/15 06:28:25;;;;;;;;;;;;;;;-3.39;77.80;97608.59;5051477;28;20498;-74
2022/01/15 06:30:51;;;;;;;;;;;;;;;-3.42;78.01;97599.38;5054428;28;19959;-73
2022/01/15 06:33:17;;;;;;;;;;;;;;;-3.42;77.59;97603.66;5056982;28;20377;-72
2022/01/15 06:35:43;;;;;;;;;;;;;;;-3.43;77.63;97612.28;5061139;28;19963;-74
2022/01/15 06:38:09;;;;;;;;;;;;;;;-3.47;77.69;97609.91;5056100;28;19951;-74
2022/01/15 06:40:35;;;;;;;;;;;;;;;-3.47;77.82;97612.47;5044159;28;20300;-74
2022/01/15 06:43:02;;;;;;;;;;;;;;;-3.47;78.03;97603.97;5061901;28;19964;-74
2022/01/15 06:45:28;;;;;;;;;;;;;;;-3.45;77.75;97606.44;5063047;28;20317;-74
2022/01/15 06:47:54;;;;;;;;;;;;;;;-3.47;77.95;97607.34;5050586;28;19976;-74
2022/01/15 06:50:22;;;;;;;;;;;;;;;-3.50;78.02;97605.00;5044523;28;19964;-74
2022/01/15 06:52:48;;;;;;;;;;;;;;;-3.51;77.90;97603.38;5057703;28;19957;-74
2022/01/15 06:55:14;;;;;;;;;;;;;;;-3.52;78.20;97596.56;5059068;28;20337;-74
2022/01/15 06:57:40;;;;;;;;;;;;;;;-3.52;78.01;97590.63;5054343;28;20045;-74
2022/01/15 07:00:07;;;;;;;;;;;;;;;-3.51;77.98;97594.81;5053943;28;19959;-74
2022/01/15 07:02:33;;;;;;;;;;;;;;;-3.51;78.00;97600.78;5051958;28;20339;-74
2022/01/15 07:04:59;;;;;;;;;;;;;;;-3.49;77.37;97603.25;5058552;28;20049;-74
2022/01/15 07:07:25;;;;;;;;;;;;;;;-3.49;77.86;97605.81;5060822;28;19968;-74
2022/01/15 07:09:51;;;;;;;;;;;;;;;-3.51;78.35;97598.22;5055251;28;20004;-74
2022/01/15 07:12:17;;;;;;;;;;;;;;;-3.50;78.45;97599.88;5046485;28;19959;-77
2022/01/15 07:14:43;;;;;;;;;;;;;;;-3.49;78.61;97598.09;5057598;28;20008;-74
2022/01/15 07:17:10;;;;;;;;;;;;;;;-3.48;79.01;97592.06;5061259;28;19957;-73
2022/01/15 07:19:38;;;;;;;;;;;;;;;-3.51;78.20;97590.53;5050299;28;19953;-73
2022/01/15 07:22:05;;;;;;;;;;;;;;;-3.52;77.99;97598.31;5056613;28;19962;-74
2022/01/15 07:24:31;;;;;;;;;;;;;;;-3.55;77.93;97591.66;5052853;28;20330;-75
2022/01/15 07:26:57;;;;;;;;;;;;;;;-3.56;78.32;97587.44;5059887;28;19957;-74
2022/01/15 07:29:24;;;;;;;;;;;;;;;-3.57;78.29;97585.81;5047866;28;19976;-74
2022/01/15 07:31:51;;;;;;;;;;;;;;;-3.56;78.03;97584.88;5057423;28;19954;-73
2022/01/15 07:34:19;;;;;;;;;;;;;;;-3.55;77.84;97588.25;5052762;28;20430;-73
2022/01/15 07:36:57;;;;;;;;;;;;;;;-3.54;78.16;97590.72;5051086;28;19959;-74
2022/01/15 07:39:23;;;;;;;;;;;;;;;-3.53;78.33;97592.38;5034922;28;20454;-76
2022/01/15 07:41:49;;;;;;;;;;;;;;;-3.50;78.30;97599.03;5056057;28;19959;-74
2022/01/15 07:44:15;;;;;;;;;;;;;;;-3.50;78.63;97597.28;5050385;28;19952;-74
2022/01/15 07:46:41;;;;;;;;;;;;;;;-3.47;78.58;97591.94;5050950;28;20417;-74
2022/01/15 07:49:07;;;;;;;;;;;;;;;-3.44;78.71;97598.66;5057161;28;19974;-73
2022/01/15 07:51:33;;;;;;;;;;;;;;;-3.40;78.79;97589.81;5058336;28;19981;-74
2022/01/15 07:53:59;;;;;;;;;;;;;;;-3.37;78.75;97593.91;5056772;28;19955;-74
2022/01/15 07:56:25;;;;;;;;;;;;;;;-3.33;79.12;97582.53;5052734;28;20359;-74
2022/01/15 07:58:51;;;;;;;;;;;;;;;-3.27;79.27;97582.13;5049673;28;19957;-74
2022/01/15 08:01:17;;;;;;;;;;;;;;;-3.19;80.26;97597.81;5046835;28;19957;-74
2022/01/15 08:03:44;;;;;;;;;;;;;;;-3.10;80.28;97596.38;5058598;28;20026;-73
2022/01/15 08:06:10;;;;;;;;;;;;;;;-3.01;80.92;97590.59;5056728;28;19946;-73
2022/01/15 08:08:36;;;;;;;;;;;;;;;-2.90;81.17;97592.44;5053684;28;20309;-74
2022/01/15 08:11:03;;;;;;;;;;;;;;;-2.80;81.04;97590.88;5053024;28;20026;-74
2022/01/15 08:13:31;;;;;;;;;;;;;;;-2.68;81.55;97589.22;5060349;28;20401;-74
2022/01/15 08:15:57;;;;;;;;;;;;;;;-2.54;81.42;97573.69;5042555;28;19946;-74
2022/01/15 08:18:24;;;;;;;;;;;;;;;-2.35;81.54;97580.06;5046116;28;19954;-74
2022/01/15 08:20:50;;;;;;;;;;;;;;;-2.21;81.32;97590.19;5052060;28;20452;-74
2022/01/15 08:23:16;;;;;;;;;;;;;;;-2.07;81.13;97595.16;5056649;28;19948;-74
2022/01/15 08:25:42;;;;;;;;;;;;;;;-1.98;81.26;97574.88;5057415;28;19957;-75
2022/01/15 08:28:08;;;;;;;;;;;;;;;-1.91;80.86;97581.19;5043180;28;19965;-74
2022/01/15 08:30:34;;;;;;;;;;;;;;;-1.66;80.89;97582.78;5051420;28;19961;-73
2022/01/15 08:33:00;;;;;;;;;;;;;;;-1.30;80.17;97573.25;5058898;28;19961;-74
2022/01/15 08:35:26;;;;;;;;;;;;;;;-0.95;85.47;97572.34;5057224;28;19965;-74
2022/01/15 08:37:54;;;;;;;;;;;;;;;-0.35;98.28;97571.09;5054680;28;19967;-74
2022/01/15 08:40:20;;;;;;;;;;;;;;;0.44;100.00;97567.34;5043271;28;19954;-76
2022/01/15 08:42:47;;;;;;;;;;;;;;;1.06;89.02;97576.75;5065759;28;19956;-74
2022/01/15 08:45:14;;;;;;;;;;;;;;;1.26;79.00;97566.50;5053356;28;19956;-74
2022/01/15 08:47:40;;;;;;;;;;;;;;;1.27;75.00;97568.13;5045712;28;19963;-74
2022/01/15 08:50:08;;;;;;;;;;;;;;;1.14;74.52;97563.22;5050047;28;19954;-73
2022/01/15 08:52:34;;;;;;;;;;;;;;;1.00;73.70;97559.19;5060381;28;19984;-74
2022/01/15 08:55:01;;;;;;;;;;;;;;;0.76;73.38;97555.16;5056444;28;19962;-74
2022/01/15 08:57:26;;;;;;;;;;;;;;;0.65;74.08;97557.84;5042749;28;19956;-74
2022/01/15 08:59:53;;;;;;;;;;;;;;;0.70;74.65;97563.41;5053543;28;19998;-74
2022/01/15 09:02:19;;;;;;;;;;;;;;;0.74;74.38;97553.66;5056473;28;20418;-73
2022/01/15 09:04:45;;;;;;;;;;;;;;;0.85;74.10;97550.19;5059588;28;19963;-73
2022/01/15 09:07:12;;;;;;;;;;;;;;;0.98;74.25;97554.16;5070233;28;19971;-74
2022/01/15 09:09:38;;;;;;;;;;;;;;;1.12;73.97;97552.19;5052447;28;20306;-73
2022/01/15 09:12:04;;;;;;;;;;;;;;;1.18;73.82;97552.47;5058120;28;19980;-74
2022/01/15 09:14:30;;;;;;;;;;;;;;;1.25;73.65;97557.13;5054932;28;19954;-73
2022/01/15 09:16:56;;;;;;;;;;;;;;;1.31;74.03;97549.66;5062935;28;19955;-73
2022/01/15 09:19:22;;;;;;;;;;;;;;;1.49;74.16;97546.41;5055524;28;19980;-73
2022/01/15 09:21:48;;;;;;;;;;;;;;;1.68;73.96;97551.63;5049326;28;20062;-73
2022/01/15 09:24:14;;;;;;;;;;;;;;;1.79;72.50;97548.91;5054892;28;19961;-73
2022/01/15 09:32:06;;;;;;;;;;;;;;;1.83;72.90;97544.28;5059922;28;19952;-74
2022/01/15 09:34:34;;;;;;;;;;;;;;;1.91;73.07;97543.59;5049593;28;19956;-74
2022/01/15 09:37:01;;;;;;;;;;;;;;;2.00;72.79;97537.63;5060535;28;19954;-74
2022/01/15 09:39:26;;;;;;;;;;;;;;;2.06;71.67;97538.81;5054609;28;20329;-74
2022/01/15 09:41:54;;;;;;;;;;;;;;;2.04;71.84;97536.41;5062876;28;19960;-74
2022/01/15 09:44:25;;;;;;;;;;;;;;;1.97;72.37;97540.47;5047106;28;19957;-74
2022/01/15 09:46:51;;;;;;;;;;;;;;;1.93;72.16;97534.78;5051438;28;19950;-74
2022/01/15 09:49:18;;;;;;;;;;;;;;;1.94;72.32;97525.22;5048816;28;19970;-74
2022/01/15 09:51:45;;;;;;;;;;;;;;;2.02;73.22;97531.34;5066822;28;19980;-74
2022/01/15 09:54:15;;;;;;;;;;;;;;;2.19;73.95;97526.44;5055051;28;19966;-74
2022/01/15 09:56:42;;;;;;;;;;;;;;;2.40;73.43;97521.91;5049649;28;19962;-74
2022/01/15 09:59:07;;;;;;;;;;;;;;;2.61;73.27;97518.31;5050734;28;19949;-74
2022/01/15 10:01:34;;;;;;;;;;;;;;;2.73;72.04;97518.94;5056626;28;19953;-74
2022/01/15 10:04:00;;;;;;;;;;;;;;;2.84;72.18;97518.78;5040012;28;20325;-74
2022/01/15 10:06:26;;;;;;;;;;;;;;;3.01;72.95;97520.59;5058613;28;19956;-74
2022/01/15 10:08:59;;;;;;;;;;;;;;;3.19;72.42;97517.22;5045584;28;19979;-74
2022/01/15 10:11:44;;;;;;;;;;;;;;;3.21;71.10;97510.97;5055004;28;19953;-73
2022/01/15 10:14:27;;;;;;;;;;;;;;;3.30;71.71;97511.03;5058292;28;19962;-74
2022/01/15 10:16:55;;;;;;;;;;;;;;;3.38;71.90;97504.19;5067075;28;19963;-74
2022/01/15 10:19:24;;;;;;;;;;;;;;;3.49;71.25;97497.16;5048587;28;19974;-74
2022/01/15 10:22:05;;;;;;;;;;;;;;;3.61;70.90;97496.78;5043239;28;19965;-74
2022/01/15 10:24:32;;;;;;;;;;;;;;;3.74;71.12;97499.00;5036062;28;19962;-74
2022/01/15 10:27:16;;;;;;;;;;;;;;;3.74;69.28;97496.41;5059976;28;20309;-74
2022/01/15 10:29:47;;;;;;;;;;;;;;;3.79;70.95;97507.16;5058298;28;19976;-74
2022/01/15 10:32:13;;;;;;;;;;;;;;;3.90;70.76;97500.91;5060582;28;19950;-73
2022/01/15 10:34:41;;;;;;;;;;;;;;;4.03;70.90;97495.34;5063945;28;20307;-75
2022/01/15 10:37:09;;;;;;;;;;;;;;;4.15;70.42;97483.75;5048851;28;20316;-74
2022/01/15 10:39:35;;;;;;;;;;;;;;;4.25;69.59;97465.50;5054628;28;19951;-74
2022/01/15 10:42:11;;;;;;;;;;;;;;;4.27;69.99;97466.16;5055307;28;20004;-74
2022/01/15 10:44:37;;;;;;;;;;;;;;;4.34;70.30;97467.16;5055789;28;19962;-74
2022/01/15 10:47:13;;;;;;;;;;;;;;;4.36;70.14;97467.81;5058701;28;20325;-74
2022/01/15 10:49:40;;;;;;;;;;;;;;;4.33;69.73;97462.13;5058119;28;20336;-74
2022/01/15 10:52:06;;;;;;;;;;;;;;;4.32;69.70;97466.50;5042989;28;19986;-74
2022/01/15 10:54:34;;;;;;;;;;;;;;;4.32;69.72;97456.09;5053881;28;19972;-74
2022/01/15 10:57:07;;;;;;;;;;;;;;;4.36;69.88;97454.84;5055634;28;19956;-74
2022/01/15 10:59:33;;;;;;;;;;;;;;;4.40;70.13;97450.97;5049846;28;20973;-74
2022/01/15 11:02:15;;;;;;;;;;;;;;;4.48;69.61;97445.00;5056499;28;19952;-75
2022/01/15 11:04:41;;;;;;;;;;;;;;;4.47;69.07;97446.81;5053127;28;19949;-73
2022/01/15 11:07:11;;;;;;;;;;;;;;;4.40;69.84;97437.97;5061343;28;19968;-74
2022/01/15 11:09:37;;;;;;;;;;;;;;;4.31;69.73;97438.09;5063627;28;20336;-74
2022/01/15 11:12:04;;;;;;;;;;;;;;;4.35;71.00;97435.03;5055519;28;19969;-74
2022/01/15 11:14:30;;;;;;;;;;;;;;;4.47;70.49;97440.78;5064446;28;19961;-76
2022/01/15 11:16:59;;;;;;;;;;;;;;;4.55;69.81;97434.81;5049522;28;20401;-74
2022/01/15 11:19:25;;;;;;;;;;;;;;;4.59;69.20;97433.53;5040193;28;19964;-74
2022/01/15 11:21:52;;;;;;;;;;;;;;;4.74;69.63;97431.16;5063137;28;19957;-74
2022/01/15 11:24:18;;;;;;;;;;;;;;;4.85;68.03;97429.09;5063569;28;20308;-74
2022/01/15 11:26:44;;;;;;;;;;;;;;;4.84;69.56;97427.47;5050722;28;19966;-74
2022/01/15 11:29:11;;;;;;;;;;;;;;;4.87;68.88;97419.38;5041276;28;19967;-74
2022/01/15 11:31:37;;;;;;;;;;;;;;;4.91;68.71;97426.81;5056472;28;19952;-74
2022/01/15 11:34:05;;;;;;;;;;;;;;;5.05;68.50;97421.84;5060491;28;19971;-74
2022/01/15 11:36:39;;;;;;;;;;;;;;;5.18;68.67;97408.38;5051122;28;20418;-74
2022/01/15 11:39:08;;;;;;;;;;;;;;;5.27;68.49;97406.59;5044429;28;20062;-74
2022/01/15 11:41:37;;;;;;;;;;;;;;;5.28;67.11;97400.44;5051434;28;19966;-74
2022/01/15 11:44:04;;;;;;;;;;;;;;;5.22;65.91;97395.88;5058782;28;19969;-74
2022/01/15 11:46:38;;;;;;;;;;;;;;;5.24;67.39;97399.13;5042133;28;20319;-74
2022/01/15 11:49:22;;;;;;;;;;;;;;;5.27;66.87;97391.00;5053045;28;19981;-74
2022/01/15 11:51:48;;;;;;;;;;;;;;;5.34;67.06;97392.00;5034449;28;19981;-74
2022/01/15 11:54:14;;;;;;;;;;;;;;;5.35;66.82;97385.81;5054238;28;19957;-74
2022/01/15 11:56:44;;;;;;;;;;;;;;;5.43;69.66;97388.41;5061789;28;19965;-75
2022/01/15 11:59:25;;;;;;;;;;;;;;;5.35;65.32;97367.59;5042584;28;19961;-74
2022/01/15 12:01:52;;;;;;;;;;;;;;;5.21;65.75;97376.84;5034398;28;19978;-75
2022/01/15 12:04:26;;;;;;;;;;;;;;;5.23;66.53;97376.72;5062491;28;20016;-74
2022/01/15 12:07:04;;;;;;;;;;;;;;;5.29;66.63;97374.28;5048749;28;20292;-75
2022/01/15 12:09:37;;;;;;;;;;;;;;;5.31;67.51;97376.69;5054018;28;19978;-74
2022/01/15 12:14:53;;;;;;;;;;;;;;;5.24;67.27;97373.13;5051810;28;19956;-74
2022/01/15 12:17:22;;;;;;;;;;;;;;;5.28;67.23;97377.84;5057965;28;19951;-74
2022/01/15 12:19:48;;;;;;;;;;;;;;;5.32;66.51;97369.72;5059547;28;19961;-75
2022/01/15 12:22:33;;;;;;;;;;;;;;;5.35;66.30;97364.19;5058905;28;19957;-75
2022/01/15 12:24:59;;;;;;;;;;;;;;;5.23;64.79;97354.09;5060655;28;20333;-74
2022/01/15 12:27:29;;;;;;;;;;;;;;;5.23;66.20;97361.09;5052837;28;19955;-74
2022/01/15 12:30:06;;;;;;;;;;;;;;;5.22;65.74;97349.06;5057277;28;19977;-74
2022/01/15 12:32:38;;;;;;;;;;;;;;;5.28;66.05;97343.22;5043640;28;19963;-75
2022/01/15 12:35:05;;;;;;;;;;;;;;;5.25;65.53;97344.34;5069004;28;19958;-74
2022/01/15 12:37:31;;;;;;;;;;;;;;;5.20;64.54;97340.59;5061001;28;20314;-74
2022/01/15 12:39:57;;;;;;;;;;;;;;;5.15;65.83;97341.09;5057486;28;19951;-74
2022/01/15 12:42:29;;;;;;;;;;;;;;;5.11;65.33;97337.19;5053186;28;19952;-74
2022/01/15 12:44:56;;;;;;;;;;;;;;;5.02;65.05;97333.78;5057420;28;19956;-74
2022/01/15 12:47:22;;;;;;;;;;;;;;;4.98;65.16;97332.47;5058346;28;20365;-74
2022/01/15 12:49:50;;;;;;;;;;;;;;;4.94;65.71;97325.97;5060829;28;19973;-74
2022/01/15 12:52:20;;;;;;;;;;;;;;;4.99;65.13;97323.69;5053009;28;19979;-74
2022/01/15 12:54:46;;;;;;;;;;;;;;;5.09;66.50;97328.75;5058778;28;19958;-75
2022/01/15 12:57:34;;;;;;;;;;;;;;;5.07;65.16;97318.50;5058904;28;20285;-74
2022/01/15 13:00:01;;;;;;;;;;;;;;;5.03;66.08;97317.19;5058613;28;19959;-74
2022/01/15 13:02:27;;;;;;;;;;;;;;;5.04;66.05;97320.59;5058498;28;19958;-74
2022/01/15 13:04:53;;;;;;;;;;;;;;;5.11;66.62;97318.19;5068684;28;20307;-75
2022/01/15 13:07:19;;;;;;;;;;;;;;;5.12;65.72;97307.59;5052434;28;19962;-74
2022/01/15 13:09:45;;;;;;;;;;;;;;;5.14;66.66;97305.66;5039555;28;20078;-75
2022/01/15 13:12:11;;;;;;;;;;;;;;;5.18;66.30;97303.56;5050678;28;19961;-74
2022/01/15 13:14:38;;;;;;;;;;;;;;;5.19;65.62;97297.38;5067425;28;19979;-74
2022/01/15 13:17:04;;;;;;;;;;;;;;;5.25;67.03;97297.53;5058966;28;19948;-74
2022/01/15 13:19:37;;;;;;;;;;;;;;;5.27;65.53;97289.56;5032515;28;19966;-75
2022/01/15 13:22:03;;;;;;;;;;;;;;;5.19;65.47;97293.00;5062669;28;19969;-76